sensor_id;sensor_type;location;lat;lon;timestamp;P1;durP1;ratioP1;P2;durP2;ratioP2
22382;SDS011;11359;45.802;13.530;2023-02-28T00:01:16;4.13;;;2.80;;
22382;SDS011;11359;45.802;13.530;2023-02-28T00:03:42;3.88;;;2.78;;
22382;SDS011;11359;45.802;13.530;2023-02-28T00:06:08;3.53;;;2.83;;
22382;SDS011;11359;45.802;13.530;2023-02-28T00:08:34;3.88;;;2.78;;
22382;SDS011;11359;45.802;13.530;2023-02-28T00:11:02;3.75;;;2.67;;
22382;SDS011;11359;45.802;13.530;2023-02-28T00:13:33;4.22;;;2.92;;
22382;SDS011;11359;45.802;13.530;2023-02-28T00:16:03;4.13;;;2.80;;
22382;SDS011;11359;45.802;13.530;2023-02-28T00:18:31;4.47;;;3.22;;
22382;SDS011;11359;45.802;13.530;2023-02-28T00:20:58;3.47;;;2.67;;
22382;SDS011;11359;45.802;13.530;2023-02-28T00:23:24;3.25;;;2.63;;
22382;SDS011;11359;45.802;13.530;2023-02-28T00:25:51;3.88;;;2.70;;
22382;SDS011;11359;45.802;13.530;2023-02-28T00:28:17;3.83;;;2.97;;
22382;SDS011;11359;45.802;13.530;2023-02-28T00:30:43;4.70;;;3.10;;
22382;SDS011;11359;45.802;13.530;2023-02-28T00:33:09;3.10;;;2.45;;
22382;SDS011;11359;45.802;13.530;2023-02-28T00:35:35;3.35;;;2.63;;
22382;SDS011;11359;45.802;13.530;2023-02-28T00:38:01;3.85;;;2.67;;
22382;SDS011;11359;45.802;13.530;2023-02-28T00:40:27;2.83;;;1.92;;
22382;SDS011;11359;45.802;13.530;2023-02-28T00:42:54;3.88;;;2.75;;
22382;SDS011;11359;45.802;13.530;2023-02-28T00:45:19;5.32;;;2.67;;
22382;SDS011;11359;45.802;13.530;2023-02-28T00:47:45;3.72;;;3.05;;
22382;SDS011;11359;45.802;13.530;2023-02-28T00:50:15;4.32;;;2.72;;
22382;SDS011;11359;45.802;13.530;2023-02-28T00:52:45;4.15;;;2.90;;
22382;SDS011;11359;45.802;13.530;2023-02-28T00:55:11;4.78;;;3.30;;
22382;SDS011;11359;45.802;13.530;2023-02-28T00:57:37;4.00;;;3.10;;
22382;SDS011;11359;45.802;13.530;2023-02-28T01:00:04;3.75;;;2.78;;
22382;SDS011;11359;45.802;13.530;2023-02-28T01:02:30;3.58;;;2.58;;
22382;SDS011;11359;45.802;13.530;2023-02-28T01:04:56;3.63;;;2.60;;
22382;SDS011;11359;45.802;13.530;2023-02-28T01:07:22;3.33;;;2.83;;
22382;SDS011;11359;45.802;13.530;2023-02-28T01:09:48;5.25;;;2.97;;
22382;SDS011;11359;45.802;13.530;2023-02-28T01:12:14;4.10;;;3.00;;
22382;SDS011;11359;45.802;13.530;2023-02-28T01:14:40;3.30;;;2.70;;
22382;SDS011;11359;45.802;13.530;2023-02-28T01:17:06;3.83;;;2.80;;
22382;SDS011;11359;45.802;13.530;2023-02-28T01:19:32;4.18;;;3.10;;
22382;SDS011;11359;45.802;13.530;2023-02-28T01:22:00;3.92;;;3.00;;
22382;SDS011;11359;45.802;13.530;2023-02-28T01:24:27;4.03;;;2.90;;
22382;SDS011;11359;45.802;13.530;2023-02-28T01:26:53;4.45;;;2.97;;
22382;SDS011;11359;45.802;13.530;2023-02-28T01:29:19;4.82;;;3.70;;
22382;SDS011;11359;45.802;13.530;2023-02-28T01:31:45;4.88;;;3.50;;
22382;SDS011;11359;45.802;13.530;2023-02-28T01:34:11;4.93;;;3.58;;
22382;SDS011;11359;45.802;13.530;2023-02-28T01:36:37;5.57;;;4.28;;
22382;SDS011;11359;45.802;13.530;2023-02-28T01:39:03;4.85;;;3.30;;
22382;SDS011;11359;45.802;13.530;2023-02-28T01:41:30;6.22;;;3.67;;
22382;SDS011;11359;45.802;13.530;2023-02-28T01:43:59;4.90;;;3.50;;
22382;SDS011;11359;45.802;13.530;2023-02-28T01:46:51;4.93;;;3.38;;
22382;SDS011;11359;45.802;13.530;2023-02-28T01:49:17;4.57;;;3.40;;
22382;SDS011;11359;45.802;13.530;2023-02-28T01:51:45;4.40;;;2.95;;
22382;SDS011;11359;45.802;13.530;2023-02-28T01:54:27;3.33;;;2.40;;
22382;SDS011;11359;45.802;13.530;2023-02-28T01:57:07;4.18;;;2.88;;
22382;SDS011;11359;45.802;13.530;2023-02-28T01:59:48;4.05;;;2.90;;
22382;SDS011;11359;45.802;13.530;2023-02-28T02:02:26;4.07;;;2.92;;
22382;SDS011;11359;45.802;13.530;2023-02-28T02:04:55;3.83;;;2.60;;
22382;SDS011;11359;45.802;13.530;2023-02-28T02:07:26;4.15;;;2.78;;
22382;SDS011;11359;45.802;13.530;2023-02-28T02:10:05;5.22;;;3.70;;
22382;SDS011;11359;45.802;13.530;2023-02-28T02:12:49;4.47;;;3.03;;
22382;SDS011;11359;45.802;13.530;2023-02-28T02:18:32;3.60;;;2.83;;
22382;SDS011;11359;45.802;13.530;2023-02-28T02:40:25;4.72;;;2.97;;
22382;SDS011;11359;45.802;13.530;2023-02-28T02:43:07;5.03;;;3.05;;
22382;SDS011;11359;45.802;13.530;2023-02-28T02:50:43;5.07;;;3.63;;
22382;SDS011;11359;45.802;13.530;2023-02-28T02:53:16;4.82;;;3.33;;
22382;SDS011;11359;45.802;13.530;2023-02-28T02:55:46;4.50;;;3.35;;
22382;SDS011;11359;45.802;13.530;2023-02-28T02:58:19;5.28;;;3.13;;
22382;SDS011;11359;45.802;13.530;2023-02-28T03:00:50;4.10;;;2.97;;
22382;SDS011;11359;45.802;13.530;2023-02-28T03:03:20;5.10;;;3.42;;
22382;SDS011;11359;45.802;13.530;2023-02-28T03:05:54;4.55;;;2.80;;
22382;SDS011;11359;45.802;13.530;2023-02-28T03:08:21;4.57;;;3.13;;
22382;SDS011;11359;45.802;13.530;2023-02-28T03:10:55;4.63;;;3.25;;
22382;SDS011;11359;45.802;13.530;2023-02-28T03:16:11;4.68;;;3.08;;
22382;SDS011;11359;45.802;13.530;2023-02-28T03:27:14;5.15;;;3.40;;
22382;SDS011;11359;45.802;13.530;2023-02-28T03:30:10;4.50;;;3.38;;
22382;SDS011;11359;45.802;13.530;2023-02-28T03:32:55;4.88;;;3.15;;
22382;SDS011;11359;45.802;13.530;2023-02-28T03:35:27;5.45;;;3.58;;
22382;SDS011;11359;45.802;13.530;2023-02-28T03:38:10;5.00;;;3.40;;
22382;SDS011;11359;45.802;13.530;2023-02-28T03:41:07;4.68;;;3.20;;
22382;SDS011;11359;45.802;13.530;2023-02-28T03:43:44;3.85;;;2.75;;
22382;SDS011;11359;45.802;13.530;2023-02-28T03:46:16;4.13;;;3.15;;
22382;SDS011;11359;45.802;13.530;2023-02-28T03:48:51;4.70;;;2.97;;
22382;SDS011;11359;45.802;13.530;2023-02-28T03:51:22;3.35;;;2.53;;
22382;SDS011;11359;45.802;13.530;2023-02-28T03:53:53;5.15;;;3.33;;
22382;SDS011;11359;45.802;13.530;2023-02-28T03:56:25;3.10;;;2.53;;
22382;SDS011;11359;45.802;13.530;2023-02-28T03:59:05;4.55;;;2.75;;
22382;SDS011;11359;45.802;13.530;2023-02-28T04:01:38;4.45;;;2.83;;
22382;SDS011;11359;45.802;13.530;2023-02-28T04:04:12;4.30;;;3.42;;
22382;SDS011;11359;45.802;13.530;2023-02-28T04:06:40;6.60;;;4.63;;
22382;SDS011;11359;45.802;13.530;2023-02-28T04:09:07;4.95;;;3.58;;
22382;SDS011;11359;45.802;13.530;2023-02-28T04:14:03;3.92;;;3.05;;
22382;SDS011;11359;45.802;13.530;2023-02-28T04:16:31;4.22;;;3.20;;
22382;SDS011;11359;45.802;13.530;2023-02-28T04:18:58;5.03;;;3.58;;
22382;SDS011;11359;45.802;13.530;2023-02-28T04:21:46;4.28;;;2.90;;
22382;SDS011;11359;45.802;13.530;2023-02-28T04:24:14;3.95;;;3.08;;
22382;SDS011;11359;45.802;13.530;2023-02-28T04:26:46;4.88;;;3.47;;
22382;SDS011;11359;45.802;13.530;2023-02-28T04:29:14;4.65;;;3.30;;
22382;SDS011;11359;45.802;13.530;2023-02-28T04:31:44;3.75;;;3.08;;
22382;SDS011;11359;45.802;13.530;2023-02-28T04:34:09;3.83;;;3.13;;
22382;SDS011;11359;45.802;13.530;2023-02-28T04:36:36;3.58;;;2.80;;
22382;SDS011;11359;45.802;13.530;2023-02-28T04:39:02;4.72;;;2.90;;
22382;SDS011;11359;45.802;13.530;2023-02-28T04:41:29;3.85;;;3.03;;
22382;SDS011;11359;45.802;13.530;2023-02-28T04:43:55;4.15;;;2.75;;
22382;SDS011;11359;45.802;13.530;2023-02-28T04:46:21;4.15;;;3.22;;
22382;SDS011;11359;45.802;13.530;2023-02-28T04:48:47;4.40;;;2.67;;
22382;SDS011;11359;45.802;13.530;2023-02-28T04:51:14;3.53;;;2.88;;
22382;SDS011;11359;45.802;13.530;2023-02-28T04:53:41;3.88;;;2.90;;
22382;SDS011;11359;45.802;13.530;2023-02-28T04:56:09;3.30;;;2.40;;
22382;SDS011;11359;45.802;13.530;2023-02-28T04:58:37;3.60;;;2.53;;
22382;SDS011;11359;45.802;13.530;2023-02-28T05:01:04;3.08;;;2.17;;
22382;SDS011;11359;45.802;13.530;2023-02-28T05:06:07;5.03;;;3.28;;
22382;SDS011;11359;45.802;13.530;2023-02-28T05:08:34;4.38;;;3.08;;
22382;SDS011;11359;45.802;13.530;2023-02-28T05:11:00;3.40;;;2.50;;
22382;SDS011;11359;45.802;13.530;2023-02-28T05:13:26;2.67;;;2.00;;
22382;SDS011;11359;45.802;13.530;2023-02-28T05:15:53;3.65;;;2.45;;
22382;SDS011;11359;45.802;13.530;2023-02-28T05:18:19;3.60;;;2.50;;
22382;SDS011;11359;45.802;13.530;2023-02-28T05:20:48;4.47;;;3.08;;
22382;SDS011;11359;45.802;13.530;2023-02-28T05:23:14;4.45;;;3.25;;
22382;SDS011;11359;45.802;13.530;2023-02-28T05:25:41;4.70;;;3.17;;
22382;SDS011;11359;45.802;13.530;2023-02-28T05:28:07;3.65;;;2.90;;
22382;SDS011;11359;45.802;13.530;2023-02-28T05:30:32;4.45;;;3.20;;
22382;SDS011;11359;45.802;13.530;2023-02-28T05:32:58;4.03;;;2.95;;
22382;SDS011;11359;45.802;13.530;2023-02-28T05:35:24;3.35;;;2.65;;
22382;SDS011;11359;45.802;13.530;2023-02-28T05:37:50;4.55;;;3.15;;
22382;SDS011;11359;45.802;13.530;2023-02-28T05:40:16;3.85;;;3.03;;
22382;SDS011;11359;45.802;13.530;2023-02-28T05:42:42;5.78;;;3.90;;
22382;SDS011;11359;45.802;13.530;2023-02-28T05:45:08;6.25;;;4.78;;
22382;SDS011;11359;45.802;13.530;2023-02-28T05:47:35;5.10;;;4.03;;
22382;SDS011;11359;45.802;13.530;2023-02-28T05:50:01;5.53;;;4.05;;
22382;SDS011;11359;45.802;13.530;2023-02-28T05:52:30;4.72;;;3.60;;
22382;SDS011;11359;45.802;13.530;2023-02-28T05:54:56;5.22;;;3.65;;
22382;SDS011;11359;45.802;13.530;2023-02-28T05:57:22;4.80;;;3.38;;
22382;SDS011;11359;45.802;13.530;2023-02-28T05:59:47;4.53;;;3.55;;
22382;SDS011;11359;45.802;13.530;2023-02-28T06:02:14;4.68;;;3.10;;
22382;SDS011;11359;45.802;13.530;2023-02-28T06:04:41;4.90;;;3.60;;
22382;SDS011;11359;45.802;13.530;2023-02-28T06:07:08;3.47;;;2.90;;
22382;SDS011;11359;45.802;13.530;2023-02-28T06:09:34;4.78;;;3.20;;
22382;SDS011;11359;45.802;13.530;2023-02-28T06:12:00;4.35;;;3.28;;
22382;SDS011;11359;45.802;13.530;2023-02-28T06:14:30;4.20;;;3.40;;
22382;SDS011;11359;45.802;13.530;2023-02-28T06:16:57;4.90;;;3.55;;
22382;SDS011;11359;45.802;13.530;2023-02-28T06:19:23;3.72;;;2.70;;
22382;SDS011;11359;45.802;13.530;2023-02-28T06:21:51;3.45;;;2.55;;
22382;SDS011;11359;45.802;13.530;2023-02-28T06:24:18;4.45;;;3.33;;
22382;SDS011;11359;45.802;13.530;2023-02-28T06:26:44;6.18;;;4.00;;
22382;SDS011;11359;45.802;13.530;2023-02-28T06:29:10;4.78;;;3.45;;
22382;SDS011;11359;45.802;13.530;2023-02-28T06:31:36;5.13;;;3.92;;
22382;SDS011;11359;45.802;13.530;2023-02-28T06:34:03;3.20;;;2.75;;
22382;SDS011;11359;45.802;13.530;2023-02-28T06:36:31;4.65;;;3.10;;
22382;SDS011;11359;45.802;13.530;2023-02-28T06:38:56;4.20;;;3.28;;
22382;SDS011;11359;45.802;13.530;2023-02-28T06:41:23;3.95;;;2.67;;
22382;SDS011;11359;45.802;13.530;2023-02-28T06:43:50;3.63;;;2.75;;
22382;SDS011;11359;45.802;13.530;2023-02-28T06:46:16;4.15;;;3.20;;
22382;SDS011;11359;45.802;13.530;2023-02-28T06:48:43;5.35;;;3.97;;
22382;SDS011;11359;45.802;13.530;2023-02-28T06:51:14;4.53;;;3.70;;
22382;SDS011;11359;45.802;13.530;2023-02-28T06:53:41;5.70;;;4.00;;
22382;SDS011;11359;45.802;13.530;2023-02-28T06:56:10;4.28;;;3.08;;
22382;SDS011;11359;45.802;13.530;2023-02-28T06:58:40;3.22;;;2.80;;
22382;SDS011;11359;45.802;13.530;2023-02-28T07:01:06;4.30;;;3.05;;
22382;SDS011;11359;45.802;13.530;2023-02-28T07:03:34;4.65;;;3.55;;
22382;SDS011;11359;45.802;13.530;2023-02-28T07:06:00;4.53;;;3.28;;
22382;SDS011;11359;45.802;13.530;2023-02-28T07:08:26;3.88;;;2.67;;
22382;SDS011;11359;45.802;13.530;2023-02-28T07:10:55;3.90;;;3.13;;
22382;SDS011;11359;45.802;13.530;2023-02-28T07:13:22;3.53;;;2.88;;
22382;SDS011;11359;45.802;13.530;2023-02-28T07:15:56;3.80;;;2.97;;
22382;SDS011;11359;45.802;13.530;2023-02-28T07:18:22;5.88;;;3.50;;
22382;SDS011;11359;45.802;13.530;2023-02-28T07:20:49;4.82;;;3.80;;
22382;SDS011;11359;45.802;13.530;2023-02-28T07:23:15;4.75;;;3.70;;
22382;SDS011;11359;45.802;13.530;2023-02-28T07:25:41;4.30;;;3.28;;
22382;SDS011;11359;45.802;13.530;2023-02-28T07:28:07;5.18;;;4.13;;
22382;SDS011;11359;45.802;13.530;2023-02-28T07:30:32;4.88;;;3.72;;
22382;SDS011;11359;45.802;13.530;2023-02-28T07:32:58;6.75;;;4.88;;
22382;SDS011;11359;45.802;13.530;2023-02-28T07:35:24;6.25;;;4.85;;
22382;SDS011;11359;45.802;13.530;2023-02-28T07:37:50;5.60;;;4.20;;
22382;SDS011;11359;45.802;13.530;2023-02-28T07:40:16;6.10;;;4.40;;
22382;SDS011;11359;45.802;13.530;2023-02-28T07:42:43;5.25;;;3.95;;
22382;SDS011;11359;45.802;13.530;2023-02-28T07:45:10;3.72;;;3.17;;
22382;SDS011;11359;45.802;13.530;2023-02-28T07:47:39;3.97;;;3.03;;
22382;SDS011;11359;45.802;13.530;2023-02-28T07:50:07;6.15;;;3.92;;
22382;SDS011;11359;45.802;13.530;2023-02-28T07:52:36;5.05;;;3.72;;
22382;SDS011;11359;45.802;13.530;2023-02-28T07:55:06;4.55;;;3.40;;
22382;SDS011;11359;45.802;13.530;2023-02-28T07:57:32;3.50;;;2.78;;
22382;SDS011;11359;45.802;13.530;2023-02-28T07:59:58;4.30;;;3.20;;
22382;SDS011;11359;45.802;13.530;2023-02-28T08:02:24;4.75;;;3.50;;
22382;SDS011;11359;45.802;13.530;2023-02-28T08:04:50;5.22;;;3.67;;
22382;SDS011;11359;45.802;13.530;2023-02-28T08:07:16;4.55;;;3.10;;
22382;SDS011;11359;45.802;13.530;2023-02-28T08:09:43;4.40;;;3.53;;
22382;SDS011;11359;45.802;13.530;2023-02-28T08:12:09;4.90;;;3.70;;
22382;SDS011;11359;45.802;13.530;2023-02-28T08:14:35;5.28;;;4.13;;
22382;SDS011;11359;45.802;13.530;2023-02-28T08:17:02;4.85;;;3.75;;
22382;SDS011;11359;45.802;13.530;2023-02-28T08:19:28;5.47;;;3.90;;
22382;SDS011;11359;45.802;13.530;2023-02-28T08:21:55;4.18;;;3.33;;
22382;SDS011;11359;45.802;13.530;2023-02-28T08:24:21;4.07;;;3.30;;
22382;SDS011;11359;45.802;13.530;2023-02-28T08:26:47;4.57;;;3.45;;
22382;SDS011;11359;45.802;13.530;2023-02-28T08:29:13;6.18;;;3.42;;
22382;SDS011;11359;45.802;13.530;2023-02-28T08:31:38;4.60;;;3.28;;
22382;SDS011;11359;45.802;13.530;2023-02-28T08:34:08;4.28;;;3.30;;
22382;SDS011;11359;45.802;13.530;2023-02-28T08:36:36;4.40;;;3.03;;
22382;SDS011;11359;45.802;13.530;2023-02-28T08:39:02;4.22;;;2.88;;
22382;SDS011;11359;45.802;13.530;2023-02-28T08:41:28;4.32;;;3.20;;
22382;SDS011;11359;45.802;13.530;2023-02-28T08:43:54;4.38;;;3.38;;
22382;SDS011;11359;45.802;13.530;2023-02-28T08:46:20;4.40;;;3.33;;
22382;SDS011;11359;45.802;13.530;2023-02-28T08:48:46;5.13;;;3.22;;
22382;SDS011;11359;45.802;13.530;2023-02-28T08:51:15;4.50;;;3.30;;
22382;SDS011;11359;45.802;13.530;2023-02-28T08:53:43;3.53;;;2.80;;
22382;SDS011;11359;45.802;13.530;2023-02-28T08:56:12;4.85;;;3.08;;
22382;SDS011;11359;45.802;13.530;2023-02-28T08:58:39;3.55;;;2.97;;
22382;SDS011;11359;45.802;13.530;2023-02-28T09:01:09;3.80;;;3.13;;
22382;SDS011;11359;45.802;13.530;2023-02-28T09:03:37;3.90;;;3.28;;
22382;SDS011;11359;45.802;13.530;2023-02-28T09:06:03;4.85;;;3.10;;
22382;SDS011;11359;45.802;13.530;2023-02-28T09:08:30;3.90;;;3.17;;
22382;SDS011;11359;45.802;13.530;2023-02-28T09:10:56;4.10;;;2.97;;
22382;SDS011;11359;45.802;13.530;2023-02-28T09:13:23;4.55;;;3.40;;
22382;SDS011;11359;45.802;13.530;2023-02-28T09:15:49;3.80;;;2.97;;
22382;SDS011;11359;45.802;13.530;2023-02-28T09:18:15;4.07;;;2.97;;
22382;SDS011;11359;45.802;13.530;2023-02-28T09:20:42;3.80;;;2.90;;
22382;SDS011;11359;45.802;13.530;2023-02-28T09:23:09;3.42;;;2.47;;
22382;SDS011;11359;45.802;13.530;2023-02-28T09:25:36;3.13;;;2.40;;
22382;SDS011;11359;45.802;13.530;2023-02-28T09:28:03;3.45;;;2.88;;
22382;SDS011;11359;45.802;13.530;2023-02-28T09:30:29;5.05;;;2.95;;
22382;SDS011;11359;45.802;13.530;2023-02-28T09:32:55;4.07;;;2.83;;
22382;SDS011;11359;45.802;13.530;2023-02-28T09:35:22;4.00;;;2.75;;
22382;SDS011;11359;45.802;13.530;2023-02-28T09:37:49;3.53;;;2.53;;
22382;SDS011;11359;45.802;13.530;2023-02-28T09:40:17;3.47;;;2.88;;
22382;SDS011;11359;45.802;13.530;2023-02-28T09:42:48;3.80;;;3.00;;
22382;SDS011;11359;45.802;13.530;2023-02-28T09:47:59;4.05;;;3.10;;
22382;SDS011;11359;45.802;13.530;2023-02-28T09:50:40;3.10;;;2.35;;
22382;SDS011;11359;45.802;13.530;2023-02-28T09:53:20;3.25;;;2.35;;
22382;SDS011;11359;45.802;13.530;2023-02-28T09:55:53;3.10;;;2.40;;
22382;SDS011;11359;45.802;13.530;2023-02-28T09:58:34;4.65;;;3.60;;
22382;SDS011;11359;45.802;13.530;2023-02-28T10:04:18;4.32;;;3.50;;
22382;SDS011;11359;45.802;13.530;2023-02-28T10:07:02;3.97;;;3.05;;
22382;SDS011;11359;45.802;13.530;2023-02-28T10:09:52;3.97;;;3.08;;
22382;SDS011;11359;45.802;13.530;2023-02-28T10:12:20;4.55;;;3.50;;
22382;SDS011;11359;45.802;13.530;2023-02-28T10:14:47;4.35;;;3.22;;
22382;SDS011;11359;45.802;13.530;2023-02-28T10:17:17;4.00;;;3.03;;
22382;SDS011;11359;45.802;13.530;2023-02-28T10:24:51;3.35;;;2.47;;
22382;SDS011;11359;45.802;13.530;2023-02-28T10:27:23;3.97;;;2.70;;
22382;SDS011;11359;45.802;13.530;2023-02-28T10:29:54;4.15;;;3.03;;
22382;SDS011;11359;45.802;13.530;2023-02-28T10:37:22;3.70;;;2.47;;
22382;SDS011;11359;45.802;13.530;2023-02-28T10:39:48;3.05;;;2.30;;
22382;SDS011;11359;45.802;13.530;2023-02-28T10:42:24;3.92;;;2.80;;
22382;SDS011;11359;45.802;13.530;2023-02-28T10:45:05;4.28;;;3.03;;
22382;SDS011;11359;45.802;13.530;2023-02-28T10:55:35;4.35;;;3.22;;
22382;SDS011;11359;45.802;13.530;2023-02-28T10:58:01;5.35;;;3.53;;
22382;SDS011;11359;45.802;13.530;2023-02-28T11:00:32;4.50;;;3.08;;
22382;SDS011;11359;45.802;13.530;2023-02-28T11:03:00;4.28;;;3.40;;
22382;SDS011;11359;45.802;13.530;2023-02-28T11:05:27;4.15;;;3.20;;
22382;SDS011;11359;45.802;13.530;2023-02-28T11:07:54;4.28;;;3.03;;
22382;SDS011;11359;45.802;13.530;2023-02-28T11:10:23;3.38;;;2.50;;
22382;SDS011;11359;45.802;13.530;2023-02-28T11:12:54;3.83;;;2.90;;
22382;SDS011;11359;45.802;13.530;2023-02-28T11:15:25;3.38;;;2.63;;
22382;SDS011;11359;45.802;13.530;2023-02-28T11:17:53;3.72;;;2.80;;
22382;SDS011;11359;45.802;13.530;2023-02-28T11:20:23;4.00;;;3.05;;
22382;SDS011;11359;45.802;13.530;2023-02-28T11:22:51;4.88;;;3.08;;
22382;SDS011;11359;45.802;13.530;2023-02-28T11:27:49;4.72;;;2.95;;
22382;SDS011;11359;45.802;13.530;2023-02-28T11:30:30;4.82;;;3.70;;
22382;SDS011;11359;45.802;13.530;2023-02-28T11:36:08;4.55;;;3.13;;
22382;SDS011;11359;45.802;13.530;2023-02-28T11:38:39;4.80;;;3.55;;
22382;SDS011;11359;45.802;13.530;2023-02-28T11:41:16;4.75;;;3.60;;
22382;SDS011;11359;45.802;13.530;2023-02-28T11:55:38;5.80;;;3.72;;
22382;SDS011;11359;45.802;13.530;2023-02-28T12:01:11;5.45;;;3.67;;
22382;SDS011;11359;45.802;13.530;2023-02-28T12:03:49;5.50;;;3.92;;
22382;SDS011;11359;45.802;13.530;2023-02-28T12:06:38;5.32;;;4.30;;
22382;SDS011;11359;45.802;13.530;2023-02-28T12:15:18;5.90;;;3.92;;
22382;SDS011;11359;45.802;13.530;2023-02-28T12:26:35;6.35;;;4.60;;
22382;SDS011;11359;45.802;13.530;2023-02-28T12:32:09;5.70;;;4.20;;
22382;SDS011;11359;45.802;13.530;2023-02-28T12:34:43;5.90;;;4.05;;
22382;SDS011;11359;45.802;13.530;2023-02-28T12:37:27;4.50;;;3.42;;
22382;SDS011;11359;45.802;13.530;2023-02-28T12:40:03;5.53;;;3.97;;
22382;SDS011;11359;45.802;13.530;2023-02-28T12:42:44;4.95;;;3.60;;
22382;SDS011;11359;45.802;13.530;2023-02-28T12:47:45;4.30;;;3.30;;
22382;SDS011;11359;45.802;13.530;2023-02-28T12:50:17;5.63;;;4.03;;
22382;SDS011;11359;45.802;13.530;2023-02-28T13:00:25;4.88;;;3.58;;
22382;SDS011;11359;45.802;13.530;2023-02-28T13:11:28;5.47;;;3.95;;
22382;SDS011;11359;45.802;13.530;2023-02-28T13:14:00;4.72;;;3.72;;
22382;SDS011;11359;45.802;13.530;2023-02-28T13:16:42;4.78;;;3.55;;
22382;SDS011;11359;45.802;13.530;2023-02-28T13:19:20;4.45;;;3.85;;
22382;SDS011;11359;45.802;13.530;2023-02-28T13:21:49;5.25;;;3.85;;
22382;SDS011;11359;45.802;13.530;2023-02-28T13:24:37;5.93;;;4.30;;
22382;SDS011;11359;45.802;13.530;2023-02-28T13:29:40;5.97;;;5.00;;
22382;SDS011;11359;45.802;13.530;2023-02-28T13:34:36;7.13;;;4.95;;
22382;SDS011;11359;45.802;13.530;2023-02-28T13:39:50;5.68;;;4.28;;
22382;SDS011;11359;45.802;13.530;2023-02-28T13:47:29;6.32;;;4.63;;
22382;SDS011;11359;45.802;13.530;2023-02-28T13:50:15;5.45;;;4.28;;
22382;SDS011;11359;45.802;13.530;2023-02-28T14:06:49;5.28;;;4.03;;
22382;SDS011;11359;45.802;13.530;2023-02-28T14:09:28;5.35;;;3.97;;
22382;SDS011;11359;45.802;13.530;2023-02-28T14:15:01;5.90;;;4.53;;
22382;SDS011;11359;45.802;13.530;2023-02-28T14:17:30;6.85;;;5.25;;
22382;SDS011;11359;45.802;13.530;2023-02-28T14:19:57;5.63;;;4.43;;
22382;SDS011;11359;45.802;13.530;2023-02-28T14:25:22;4.85;;;3.88;;
22382;SDS011;11359;45.802;13.530;2023-02-28T14:28:10;5.43;;;4.43;;
22382;SDS011;11359;45.802;13.530;2023-02-28T14:38:54;6.30;;;5.20;;
22382;SDS011;11359;45.802;13.530;2023-02-28T14:41:23;6.45;;;5.68;;
22382;SDS011;11359;45.802;13.530;2023-02-28T14:43:58;6.95;;;5.22;;
22382;SDS011;11359;45.802;13.530;2023-02-28T14:46:36;5.70;;;4.78;;
22382;SDS011;11359;45.802;13.530;2023-02-28T14:49:04;7.88;;;5.60;;
22382;SDS011;11359;45.802;13.530;2023-02-28T14:51:32;6.18;;;5.18;;
22382;SDS011;11359;45.802;13.530;2023-02-28T14:53:59;8.63;;;6.78;;
22382;SDS011;11359;45.802;13.530;2023-02-28T14:56:32;6.90;;;5.30;;
22382;SDS011;11359;45.802;13.530;2023-02-28T14:59:03;5.50;;;4.53;;
22382;SDS011;11359;45.802;13.530;2023-02-28T15:01:30;5.68;;;4.90;;
22382;SDS011;11359;45.802;13.530;2023-02-28T15:04:05;5.95;;;4.88;;
22382;SDS011;11359;45.802;13.530;2023-02-28T15:06:41;6.57;;;5.25;;
22382;SDS011;11359;45.802;13.530;2023-02-28T15:09:07;6.68;;;5.47;;
22382;SDS011;11359;45.802;13.530;2023-02-28T15:11:41;6.55;;;5.53;;
22382;SDS011;11359;45.802;13.530;2023-02-28T15:14:13;6.70;;;5.15;;
22382;SDS011;11359;45.802;13.530;2023-02-28T15:16:43;6.43;;;5.47;;
22382;SDS011;11359;45.802;13.530;2023-02-28T15:19:16;6.97;;;5.20;;
22382;SDS011;11359;45.802;13.530;2023-02-28T15:21:48;5.68;;;4.70;;
22382;SDS011;11359;45.802;13.530;2023-02-28T15:26:51;6.20;;;4.93;;
22382;SDS011;11359;45.802;13.530;2023-02-28T15:29:22;5.68;;;5.07;;
22382;SDS011;11359;45.802;13.530;2023-02-28T15:31:50;6.38;;;4.78;;
22382;SDS011;11359;45.802;13.530;2023-02-28T15:34:37;6.47;;;5.30;;
22382;SDS011;11359;45.802;13.530;2023-02-28T15:42:38;6.13;;;4.80;;
22382;SDS011;11359;45.802;13.530;2023-02-28T15:45:03;4.90;;;4.22;;
22382;SDS011;11359;45.802;13.530;2023-02-28T15:47:29;6.30;;;5.30;;
22382;SDS011;11359;45.802;13.530;2023-02-28T15:49:57;7.75;;;5.30;;
22382;SDS011;11359;45.802;13.530;2023-02-28T15:55:09;6.18;;;5.57;;
22382;SDS011;11359;45.802;13.530;2023-02-28T15:57:38;6.95;;;5.55;;
22382;SDS011;11359;45.802;13.530;2023-02-28T16:00:05;7.30;;;5.22;;
22382;SDS011;11359;45.802;13.530;2023-02-28T16:02:36;5.25;;;4.75;;
22382;SDS011;11359;45.802;13.530;2023-02-28T16:07:31;6.85;;;5.60;;
22382;SDS011;11359;45.802;13.530;2023-02-28T16:09:57;7.53;;;6.28;;
22382;SDS011;11359;45.802;13.530;2023-02-28T16:12:25;7.55;;;5.68;;
22382;SDS011;11359;45.802;13.530;2023-02-28T16:14:53;8.65;;;6.60;;
22382;SDS011;11359;45.802;13.530;2023-02-28T16:17:31;9.55;;;6.97;;
22382;SDS011;11359;45.802;13.530;2023-02-28T16:20:00;8.32;;;7.05;;
22382;SDS011;11359;45.802;13.530;2023-02-28T16:22:26;7.65;;;6.20;;
22382;SDS011;11359;45.802;13.530;2023-02-28T16:24:52;7.60;;;6.00;;
22382;SDS011;11359;45.802;13.530;2023-02-28T16:27:26;8.55;;;6.72;;
22382;SDS011;11359;45.802;13.530;2023-02-28T16:30:00;8.30;;;6.85;;
22382;SDS011;11359;45.802;13.530;2023-02-28T16:32:27;8.50;;;6.53;;
22382;SDS011;11359;45.802;13.530;2023-02-28T16:34:54;9.75;;;7.28;;
22382;SDS011;11359;45.802;13.530;2023-02-28T16:37:19;8.07;;;6.22;;
22382;SDS011;11359;45.802;13.530;2023-02-28T16:39:45;7.90;;;5.47;;
22382;SDS011;11359;45.802;13.530;2023-02-28T16:42:15;6.20;;;5.28;;
22382;SDS011;11359;45.802;13.530;2023-02-28T16:44:46;6.18;;;5.38;;
22382;SDS011;11359;45.802;13.530;2023-02-28T16:47:12;7.63;;;5.75;;
22382;SDS011;11359;45.802;13.530;2023-02-28T16:49:38;6.38;;;5.30;;
22382;SDS011;11359;45.802;13.530;2023-02-28T16:52:07;6.28;;;4.82;;
22382;SDS011;11359;45.802;13.530;2023-02-28T16:54:33;5.72;;;4.90;;
22382;SDS011;11359;45.802;13.530;2023-02-28T16:56:59;5.53;;;4.55;;
22382;SDS011;11359;45.802;13.530;2023-02-28T16:59:24;7.32;;;5.70;;
22382;SDS011;11359;45.802;13.530;2023-02-28T17:01:52;7.97;;;5.82;;
22382;SDS011;11359;45.802;13.530;2023-02-28T17:04:18;9.35;;;6.32;;
22382;SDS011;11359;45.802;13.530;2023-02-28T17:06:44;7.13;;;6.10;;
22382;SDS011;11359;45.802;13.530;2023-02-28T17:09:14;8.00;;;6.03;;
22382;SDS011;11359;45.802;13.530;2023-02-28T17:11:45;6.75;;;5.68;;
22382;SDS011;11359;45.802;13.530;2023-02-28T17:14:12;8.05;;;5.75;;
22382;SDS011;11359;45.802;13.530;2023-02-28T17:16:38;8.30;;;6.60;;
22382;SDS011;11359;45.802;13.530;2023-02-28T17:19:11;7.72;;;6.25;;
22382;SDS011;11359;45.802;13.530;2023-02-28T17:21:39;8.63;;;6.20;;
22382;SDS011;11359;45.802;13.530;2023-02-28T17:24:07;7.93;;;5.68;;
22382;SDS011;11359;45.802;13.530;2023-02-28T17:26:35;6.72;;;5.60;;
22382;SDS011;11359;45.802;13.530;2023-02-28T17:29:01;7.10;;;6.00;;
22382;SDS011;11359;45.802;13.530;2023-02-28T17:31:27;5.88;;;5.28;;
22382;SDS011;11359;45.802;13.530;2023-02-28T17:33:55;7.55;;;5.93;;
22382;SDS011;11359;45.802;13.530;2023-02-28T17:36:22;7.40;;;5.55;;
22382;SDS011;11359;45.802;13.530;2023-02-28T17:38:51;6.40;;;5.20;;
22382;SDS011;11359;45.802;13.530;2023-02-28T17:41:18;6.90;;;5.07;;
22382;SDS011;11359;45.802;13.530;2023-02-28T17:43:44;6.03;;;4.68;;
22382;SDS011;11359;45.802;13.530;2023-02-28T17:46:16;6.43;;;4.90;;